sensor_id;sensor_type;location;lat;lon;timestamp;P1;durP1;ratioP1;P2;durP2;ratioP2
10056;SDS011;5068;51.286;7.518;2023-04-15T00:00:10;2.75;;;1.30;;
10056;SDS011;5068;51.286;7.518;2023-04-15T00:03:18;2.28;;;1.38;;
10056;SDS011;5068;51.286;7.518;2023-04-15T00:04:50;3.65;;;1.40;;
10056;SDS011;5068;51.286;7.518;2023-04-15T00:06:24;4.22;;;1.45;;
10056;SDS011;5068;51.286;7.518;2023-04-15T00:07:58;3.75;;;1.35;;
10056;SDS011;5068;51.286;7.518;2023-04-15T00:09:33;3.65;;;1.45;;
10056;SDS011;5068;51.286;7.518;2023-04-15T00:11:06;4.22;;;1.33;;
10056;SDS011;5068;51.286;7.518;2023-04-15T00:12:39;3.53;;;1.40;;
10056;SDS011;5068;51.286;7.518;2023-04-15T00:14:13;3.38;;;1.90;;
10056;SDS011;5068;51.286;7.518;2023-04-15T00:15:46;3.85;;;1.52;;
10056;SDS011;5068;51.286;7.518;2023-04-15T00:17:20;3.88;;;1.65;;
10056;SDS011;5068;51.286;7.518;2023-04-15T00:18:52;2.55;;;1.50;;
10056;SDS011;5068;51.286;7.518;2023-04-15T00:20:25;3.40;;;1.48;;
10056;SDS011;5068;51.286;7.518;2023-04-15T00:21:59;2.30;;;1.50;;
10056;SDS011;5068;51.286;7.518;2023-04-15T00:23:32;2.55;;;1.38;;
10056;SDS011;5068;51.286;7.518;2023-04-15T00:25:08;2.83;;;1.27;;
10056;SDS011;5068;51.286;7.518;2023-04-15T00:28:15;3.35;;;1.45;;
10056;SDS011;5068;51.286;7.518;2023-04-15T00:29:48;3.78;;;1.60;;
10056;SDS011;5068;51.286;7.518;2023-04-15T00:31:22;4.22;;;1.50;;
10056;SDS011;5068;51.286;7.518;2023-04-15T00:32:55;2.95;;;1.63;;
10056;SDS011;5068;51.286;7.518;2023-04-15T00:34:28;3.10;;;1.65;;
10056;SDS011;5068;51.286;7.518;2023-04-15T00:36:02;3.53;;;1.48;;
10056;SDS011;5068;51.286;7.518;2023-04-15T00:37:36;2.80;;;1.65;;
10056;SDS011;5068;51.286;7.518;2023-04-15T00:39:09;3.55;;;1.60;;
10056;SDS011;5068;51.286;7.518;2023-04-15T00:40:44;5.10;;;1.67;;
10056;SDS011;5068;51.286;7.518;2023-04-15T00:42:17;3.63;;;1.65;;
10056;SDS011;5068;51.286;7.518;2023-04-15T00:43:52;4.00;;;1.25;;
10056;SDS011;5068;51.286;7.518;2023-04-15T00:45:25;3.67;;;1.90;;
10056;SDS011;5068;51.286;7.518;2023-04-15T00:46:59;3.70;;;1.48;;
10056;SDS011;5068;51.286;7.518;2023-04-15T00:48:33;3.72;;;1.42;;
10056;SDS011;5068;51.286;7.518;2023-04-15T00:50:06;3.05;;;1.58;;
10056;SDS011;5068;51.286;7.518;2023-04-15T00:51:41;2.38;;;1.52;;
10056;SDS011;5068;51.286;7.518;2023-04-15T00:53:15;2.38;;;1.60;;
10056;SDS011;5068;51.286;7.518;2023-04-15T00:54:47;3.95;;;1.90;;
10056;SDS011;5068;51.286;7.518;2023-04-15T00:56:22;2.33;;;1.33;;
10056;SDS011;5068;51.286;7.518;2023-04-15T00:57:57;3.03;;;1.70;;
10056;SDS011;5068;51.286;7.518;2023-04-15T00:59:30;4.50;;;1.90;;
10056;SDS011;5068;51.286;7.518;2023-04-15T01:01:05;4.25;;;1.70;;
10056;SDS011;5068;51.286;7.518;2023-04-15T01:02:37;3.38;;;1.58;;
10056;SDS011;5068;51.286;7.518;2023-04-15T01:04:11;6.30;;;2.38;;
10056;SDS011;5068;51.286;7.518;2023-04-15T01:05:45;3.38;;;2.15;;
10056;SDS011;5068;51.286;7.518;2023-04-15T01:07:18;5.38;;;2.30;;
10056;SDS011;5068;51.286;7.518;2023-04-15T01:08:51;4.45;;;2.38;;
10056;SDS011;5068;51.286;7.518;2023-04-15T01:10:25;3.85;;;1.73;;
10056;SDS011;5068;51.286;7.518;2023-04-15T01:11:59;5.72;;;2.15;;
10056;SDS011;5068;51.286;7.518;2023-04-15T01:13:33;4.22;;;2.25;;
10056;SDS011;5068;51.286;7.518;2023-04-15T01:15:08;3.67;;;1.73;;
10056;SDS011;5068;51.286;7.518;2023-04-15T01:16:42;5.20;;;2.25;;
10056;SDS011;5068;51.286;7.518;2023-04-15T01:18:15;3.67;;;2.22;;
10056;SDS011;5068;51.286;7.518;2023-04-15T01:19:49;3.65;;;2.30;;
10056;SDS011;5068;51.286;7.518;2023-04-15T01:21:23;4.03;;;1.92;;
10056;SDS011;5068;51.286;7.518;2023-04-15T01:22:57;4.22;;;2.40;;
10056;SDS011;5068;51.286;7.518;2023-04-15T01:24:31;5.60;;;2.28;;
10056;SDS011;5068;51.286;7.518;2023-04-15T01:26:05;3.85;;;2.20;;
10056;SDS011;5068;51.286;7.518;2023-04-15T01:27:39;3.55;;;2.15;;
10056;SDS011;5068;51.286;7.518;2023-04-15T01:29:13;4.00;;;2.13;;
10056;SDS011;5068;51.286;7.518;2023-04-15T01:30:47;3.63;;;1.88;;
10056;SDS011;5068;51.286;7.518;2023-04-15T01:32:20;5.00;;;2.33;;
10056;SDS011;5068;51.286;7.518;2023-04-15T01:34:14;4.55;;;2.50;;
10056;SDS011;5068;51.286;7.518;2023-04-15T01:36:06;4.13;;;2.10;;
10056;SDS011;5068;51.286;7.518;2023-04-15T01:37:41;3.63;;;1.90;;
10056;SDS011;5068;51.286;7.518;2023-04-15T01:39:14;4.72;;;2.38;;
10056;SDS011;5068;51.286;7.518;2023-04-15T01:40:49;4.70;;;2.55;;
10056;SDS011;5068;51.286;7.518;2023-04-15T01:42:25;4.32;;;2.13;;
10056;SDS011;5068;51.286;7.518;2023-04-15T01:43:59;4.70;;;2.13;;
10056;SDS011;5068;51.286;7.518;2023-04-15T01:45:34;4.25;;;2.05;;
10056;SDS011;5068;51.286;7.518;2023-04-15T01:47:09;5.38;;;2.80;;
10056;SDS011;5068;51.286;7.518;2023-04-15T01:48:42;3.78;;;2.30;;
10056;SDS011;5068;51.286;7.518;2023-04-15T01:50:17;4.85;;;2.55;;
10056;SDS011;5068;51.286;7.518;2023-04-15T01:51:52;5.07;;;2.53;;
10056;SDS011;5068;51.286;7.518;2023-04-15T01:53:27;6.03;;;2.70;;
10056;SDS011;5068;51.286;7.518;2023-04-15T01:55:01;5.18;;;2.58;;
10056;SDS011;5068;51.286;7.518;2023-04-15T01:56:38;3.95;;;2.40;;
10056;SDS011;5068;51.286;7.518;2023-04-15T01:58:13;4.40;;;2.30;;
10056;SDS011;5068;51.286;7.518;2023-04-15T01:59:48;4.85;;;2.30;;
10056;SDS011;5068;51.286;7.518;2023-04-15T02:01:23;4.22;;;2.22;;
10056;SDS011;5068;51.286;7.518;2023-04-15T02:02:57;3.13;;;2.38;;
10056;SDS011;5068;51.286;7.518;2023-04-15T02:04:31;4.15;;;2.20;;
10056;SDS011;5068;51.286;7.518;2023-04-15T02:06:05;4.22;;;2.28;;
10056;SDS011;5068;51.286;7.518;2023-04-15T02:07:40;4.43;;;2.08;;
10056;SDS011;5068;51.286;7.518;2023-04-15T02:10:50;3.15;;;2.03;;
10056;SDS011;5068;51.286;7.518;2023-04-15T02:12:25;3.80;;;2.10;;
10056;SDS011;5068;51.286;7.518;2023-04-15T02:14:01;3.30;;;1.85;;
10056;SDS011;5068;51.286;7.518;2023-04-15T02:15:35;5.10;;;2.30;;
10056;SDS011;5068;51.286;7.518;2023-04-15T02:17:10;3.78;;;2.17;;
10056;SDS011;5068;51.286;7.518;2023-04-15T02:18:44;3.17;;;2.28;;
10056;SDS011;5068;51.286;7.518;2023-04-15T02:20:20;3.33;;;2.15;;
10056;SDS011;5068;51.286;7.518;2023-04-15T02:21:55;5.70;;;2.50;;
10056;SDS011;5068;51.286;7.518;2023-04-15T02:23:29;3.47;;;2.30;;
10056;SDS011;5068;51.286;7.518;2023-04-15T02:25:04;3.95;;;2.25;;
10056;SDS011;5068;51.286;7.518;2023-04-15T02:26:41;3.10;;;2.25;;
10056;SDS011;5068;51.286;7.518;2023-04-15T02:28:16;4.40;;;2.33;;
10056;SDS011;5068;51.286;7.518;2023-04-15T02:29:52;3.50;;;1.95;;
10056;SDS011;5068;51.286;7.518;2023-04-15T02:31:26;3.92;;;2.20;;
10056;SDS011;5068;51.286;7.518;2023-04-15T02:33:03;3.05;;;2.08;;
10056;SDS011;5068;51.286;7.518;2023-04-15T02:36:14;3.42;;;2.10;;
10056;SDS011;5068;51.286;7.518;2023-04-15T02:37:49;4.80;;;2.22;;
10056;SDS011;5068;51.286;7.518;2023-04-15T02:39:24;3.00;;;1.88;;
10056;SDS011;5068;51.286;7.518;2023-04-15T02:40:59;4.00;;;2.10;;
10056;SDS011;5068;51.286;7.518;2023-04-15T02:42:36;3.78;;;2.25;;
10056;SDS011;5068;51.286;7.518;2023-04-15T02:44:14;5.43;;;2.05;;
10056;SDS011;5068;51.286;7.518;2023-04-15T02:45:52;2.60;;;1.98;;
10056;SDS011;5068;51.286;7.518;2023-04-15T02:47:26;3.70;;;1.98;;
10056;SDS011;5068;51.286;7.518;2023-04-15T02:49:00;2.95;;;2.25;;
10056;SDS011;5068;51.286;7.518;2023-04-15T02:52:11;3.25;;;1.77;;
10056;SDS011;5068;51.286;7.518;2023-04-15T02:53:45;2.85;;;1.83;;
10056;SDS011;5068;51.286;7.518;2023-04-15T02:56:55;4.03;;;2.22;;
10056;SDS011;5068;51.286;7.518;2023-04-15T02:58:29;3.38;;;1.90;;
10056;SDS011;5068;51.286;7.518;2023-04-15T03:00:04;4.40;;;2.22;;
10056;SDS011;5068;51.286;7.518;2023-04-15T03:01:44;4.72;;;2.60;;
10056;SDS011;5068;51.286;7.518;2023-04-15T03:03:19;3.67;;;1.42;;
10056;SDS011;5068;51.286;7.518;2023-04-15T03:04:53;2.85;;;1.85;;
10056;SDS011;5068;51.286;7.518;2023-04-15T03:06:28;2.53;;;1.85;;
10056;SDS011;5068;51.286;7.518;2023-04-15T03:08:02;4.25;;;1.92;;
10056;SDS011;5068;51.286;7.518;2023-04-15T03:09:37;4.10;;;1.58;;
10056;SDS011;5068;51.286;7.518;2023-04-15T03:11:13;4.70;;;2.30;;
10056;SDS011;5068;51.286;7.518;2023-04-15T03:12:48;3.33;;;2.28;;
10056;SDS011;5068;51.286;7.518;2023-04-15T03:14:26;3.08;;;1.88;;
10056;SDS011;5068;51.286;7.518;2023-04-15T03:16:00;2.83;;;2.00;;
10056;SDS011;5068;51.286;7.518;2023-04-15T03:17:36;3.25;;;1.88;;
10056;SDS011;5068;51.286;7.518;2023-04-15T03:19:11;4.15;;;2.00;;
10056;SDS011;5068;51.286;7.518;2023-04-15T03:20:47;4.15;;;1.95;;
10056;SDS011;5068;51.286;7.518;2023-04-15T03:22:22;3.95;;;2.10;;
10056;SDS011;5068;51.286;7.518;2023-04-15T03:23:58;2.83;;;2.10;;
10056;SDS011;5068;51.286;7.518;2023-04-15T03:25:33;4.03;;;2.00;;
10056;SDS011;5068;51.286;7.518;2023-04-15T03:27:10;3.40;;;1.80;;
10056;SDS011;5068;51.286;7.518;2023-04-15T03:28:44;3.63;;;1.85;;
10056;SDS011;5068;51.286;7.518;2023-04-15T03:30:19;3.92;;;2.30;;
10056;SDS011;5068;51.286;7.518;2023-04-15T03:31:53;2.78;;;1.90;;
10056;SDS011;5068;51.286;7.518;2023-04-15T03:35:04;3.05;;;1.83;;
10056;SDS011;5068;51.286;7.518;2023-04-15T03:36:38;3.50;;;2.00;;
10056;SDS011;5068;51.286;7.518;2023-04-15T03:38:12;3.22;;;1.90;;
10056;SDS011;5068;51.286;7.518;2023-04-15T03:39:47;4.72;;;1.90;;
10056;SDS011;5068;51.286;7.518;2023-04-15T03:41:20;2.80;;;2.00;;
10056;SDS011;5068;51.286;7.518;2023-04-15T03:42:55;5.50;;;2.10;;
10056;SDS011;5068;51.286;7.518;2023-04-15T03:44:29;3.25;;;2.08;;
10056;SDS011;5068;51.286;7.518;2023-04-15T03:46:04;3.72;;;2.28;;
10056;SDS011;5068;51.286;7.518;2023-04-15T03:47:38;2.80;;;1.80;;
10056;SDS011;5068;51.286;7.518;2023-04-15T03:49:14;3.38;;;2.10;;
10056;SDS011;5068;51.286;7.518;2023-04-15T03:50:48;4.07;;;2.17;;
10056;SDS011;5068;51.286;7.518;2023-04-15T03:52:23;2.33;;;1.75;;
10056;SDS011;5068;51.286;7.518;2023-04-15T03:53:58;3.80;;;2.08;;
10056;SDS011;5068;51.286;7.518;2023-04-15T03:55:32;4.03;;;2.38;;
10056;SDS011;5068;51.286;7.518;2023-04-15T03:57:07;3.28;;;2.00;;
10056;SDS011;5068;51.286;7.518;2023-04-15T03:58:41;4.80;;;2.10;;
10056;SDS011;5068;51.286;7.518;2023-04-15T04:00:15;3.50;;;2.03;;
10056;SDS011;5068;51.286;7.518;2023-04-15T04:01:51;4.13;;;2.22;;
10056;SDS011;5068;51.286;7.518;2023-04-15T04:03:25;3.88;;;1.98;;
10056;SDS011;5068;51.286;7.518;2023-04-15T04:05:01;2.88;;;1.92;;
10056;SDS011;5068;51.286;7.518;2023-04-15T04:06:36;2.60;;;2.00;;
10056;SDS011;5068;51.286;7.518;2023-04-15T04:08:11;3.47;;;1.92;;
10056;SDS011;5068;51.286;7.518;2023-04-15T04:09:47;3.15;;;1.90;;
10056;SDS011;5068;51.286;7.518;2023-04-15T04:11:22;4.90;;;2.03;;
10056;SDS011;5068;51.286;7.518;2023-04-15T04:12:56;3.08;;;2.25;;
10056;SDS011;5068;51.286;7.518;2023-04-15T04:14:30;3.22;;;1.92;;
10056;SDS011;5068;51.286;7.518;2023-04-15T04:16:04;4.25;;;2.05;;
10056;SDS011;5068;51.286;7.518;2023-04-15T04:17:44;3.35;;;2.13;;
10056;SDS011;5068;51.286;7.518;2023-04-15T04:19:18;3.35;;;1.92;;
10056;SDS011;5068;51.286;7.518;2023-04-15T04:20:54;3.75;;;1.70;;
10056;SDS011;5068;51.286;7.518;2023-04-15T04:22:29;3.70;;;2.05;;
10056;SDS011;5068;51.286;7.518;2023-04-15T04:24:03;4.07;;;1.77;;
10056;SDS011;5068;51.286;7.518;2023-04-15T04:25:38;2.70;;;1.98;;
10056;SDS011;5068;51.286;7.518;2023-04-15T04:27:13;5.57;;;2.17;;
10056;SDS011;5068;51.286;7.518;2023-04-15T04:28:47;2.53;;;1.92;;
10056;SDS011;5068;51.286;7.518;2023-04-15T04:30:22;3.25;;;1.85;;
10056;SDS011;5068;51.286;7.518;2023-04-15T04:31:57;3.08;;;2.20;;
10056;SDS011;5068;51.286;7.518;2023-04-15T04:33:31;3.30;;;2.10;;
10056;SDS011;5068;51.286;7.518;2023-04-15T04:35:06;3.72;;;2.13;;
10056;SDS011;5068;51.286;7.518;2023-04-15T04:36:43;3.17;;;2.00;;
10056;SDS011;5068;51.286;7.518;2023-04-15T04:38:17;4.25;;;2.20;;
10056;SDS011;5068;51.286;7.518;2023-04-15T04:39:51;3.47;;;2.20;;
10056;SDS011;5068;51.286;7.518;2023-04-15T04:41:25;3.80;;;2.00;;
10056;SDS011;5068;51.286;7.518;2023-04-15T04:43:00;2.88;;;1.98;;
10056;SDS011;5068;51.286;7.518;2023-04-15T04:44:33;3.15;;;1.98;;
10056;SDS011;5068;51.286;7.518;2023-04-15T04:46:07;4.55;;;2.20;;
10056;SDS011;5068;51.286;7.518;2023-04-15T04:47:43;3.95;;;2.60;;
10056;SDS011;5068;51.286;7.518;2023-04-15T04:49:17;3.53;;;2.10;;
10056;SDS011;5068;51.286;7.518;2023-04-15T04:50:52;3.05;;;2.03;;
10056;SDS011;5068;51.286;7.518;2023-04-15T04:52:28;2.97;;;2.13;;
10056;SDS011;5068;51.286;7.518;2023-04-15T04:54:02;4.38;;;2.55;;
10056;SDS011;5068;51.286;7.518;2023-04-15T04:55:37;3.63;;;2.35;;
10056;SDS011;5068;51.286;7.518;2023-04-15T04:57:12;5.25;;;2.50;;
10056;SDS011;5068;51.286;7.518;2023-04-15T04:58:46;4.82;;;2.38;;
10056;SDS011;5068;51.286;7.518;2023-04-15T05:00:21;4.10;;;2.47;;
10056;SDS011;5068;51.286;7.518;2023-04-15T05:01:55;4.25;;;1.90;;
10056;SDS011;5068;51.286;7.518;2023-04-15T05:03:30;3.95;;;2.38;;
10056;SDS011;5068;51.286;7.518;2023-04-15T05:05:05;3.78;;;2.20;;
10056;SDS011;5068;51.286;7.518;2023-04-15T05:06:41;4.78;;;2.55;;
10056;SDS011;5068;51.286;7.518;2023-04-15T05:08:17;3.25;;;1.95;;
10056;SDS011;5068;51.286;7.518;2023-04-15T05:09:51;4.05;;;2.45;;
10056;SDS011;5068;51.286;7.518;2023-04-15T05:11:26;4.70;;;2.50;;
10056;SDS011;5068;51.286;7.518;2023-04-15T05:13:00;3.38;;;2.25;;
10056;SDS011;5068;51.286;7.518;2023-04-15T05:14:34;3.10;;;2.38;;
10056;SDS011;5068;51.286;7.518;2023-04-15T05:16:09;5.53;;;2.35;;
10056;SDS011;5068;51.286;7.518;2023-04-15T05:17:43;3.83;;;2.13;;
10056;SDS011;5068;51.286;7.518;2023-04-15T05:19:18;4.13;;;2.20;;
10056;SDS011;5068;51.286;7.518;2023-04-15T05:20:52;5.50;;;2.30;;
10056;SDS011;5068;51.286;7.518;2023-04-15T05:22:27;3.22;;;2.42;;
10056;SDS011;5068;51.286;7.518;2023-04-15T05:24:03;4.20;;;2.35;;
10056;SDS011;5068;51.286;7.518;2023-04-15T05:25:38;3.40;;;2.20;;
10056;SDS011;5068;51.286;7.518;2023-04-15T05:27:13;4.78;;;2.40;;
10056;SDS011;5068;51.286;7.518;2023-04-15T05:28:47;3.47;;;2.15;;
10056;SDS011;5068;51.286;7.518;2023-04-15T05:30:22;3.63;;;2.60;;
10056;SDS011;5068;51.286;7.518;2023-04-15T05:31:56;3.90;;;2.60;;
10056;SDS011;5068;51.286;7.518;2023-04-15T05:33:30;3.10;;;2.42;;
10056;SDS011;5068;51.286;7.518;2023-04-15T05:35:05;3.42;;;2.45;;
10056;SDS011;5068;51.286;7.518;2023-04-15T05:36:40;4.07;;;2.75;;
10056;SDS011;5068;51.286;7.518;2023-04-15T05:38:14;3.97;;;2.53;;
10056;SDS011;5068;51.286;7.518;2023-04-15T05:39:50;5.03;;;2.38;;
10056;SDS011;5068;51.286;7.518;2023-04-15T05:41:25;4.18;;;2.65;;
10056;SDS011;5068;51.286;7.518;2023-04-15T05:42:59;4.22;;;2.78;;
10056;SDS011;5068;51.286;7.518;2023-04-15T05:44:34;4.15;;;2.63;;
10056;SDS011;5068;51.286;7.518;2023-04-15T05:46:08;4.95;;;2.50;;
10056;SDS011;5068;51.286;7.518;2023-04-15T05:47:43;3.85;;;2.80;;
10056;SDS011;5068;51.286;7.518;2023-04-15T05:49:17;3.80;;;2.42;;
10056;SDS011;5068;51.286;7.518;2023-04-15T05:50:51;5.13;;;2.97;;
10056;SDS011;5068;51.286;7.518;2023-04-15T05:52:26;3.35;;;2.50;;
10056;SDS011;5068;51.286;7.518;2023-04-15T05:54:00;4.53;;;2.40;;
10056;SDS011;5068;51.286;7.518;2023-04-15T05:55:36;4.78;;;2.75;;
10056;SDS011;5068;51.286;7.518;2023-04-15T05:57:10;5.55;;;2.83;;
10056;SDS011;5068;51.286;7.518;2023-04-15T05:58:45;3.50;;;2.55;;
10056;SDS011;5068;51.286;7.518;2023-04-15T06:00:19;4.22;;;2.63;;
10056;SDS011;5068;51.286;7.518;2023-04-15T06:01:54;3.53;;;2.33;;
10056;SDS011;5068;51.286;7.518;2023-04-15T06:03:28;5.93;;;2.45;;
10056;SDS011;5068;51.286;7.518;2023-04-15T06:05:03;4.82;;;2.42;;
10056;SDS011;5068;51.286;7.518;2023-04-15T06:06:41;5.00;;;2.70;;
10056;SDS011;5068;51.286;7.518;2023-04-15T06:08:16;4.60;;;2.70;;
10056;SDS011;5068;51.286;7.518;2023-04-15T06:09:50;4.82;;;2.92;;
10056;SDS011;5068;51.286;7.518;2023-04-15T06:11:26;5.18;;;3.17;;
10056;SDS011;5068;51.286;7.518;2023-04-15T06:13:01;4.60;;;3.08;;
10056;SDS011;5068;51.286;7.518;2023-04-15T06:16:10;5.60;;;2.60;;
10056;SDS011;5068;51.286;7.518;2023-04-15T06:17:45;4.00;;;2.85;;
10056;SDS011;5068;51.286;7.518;2023-04-15T06:19:19;3.53;;;2.33;;
10056;SDS011;5068;51.286;7.518;2023-04-15T06:20:54;4.93;;;2.78;;
10056;SDS011;5068;51.286;7.518;2023-04-15T06:22:29;3.30;;;2.30;;
10056;SDS011;5068;51.286;7.518;2023-04-15T06:24:03;3.97;;;2.80;;
10056;SDS011;5068;51.286;7.518;2023-04-15T06:25:38;5.50;;;2.53;;
10056;SDS011;5068;51.286;7.518;2023-04-15T06:27:14;4.32;;;2.45;;
10056;SDS011;5068;51.286;7.518;2023-04-15T06:28:48;4.68;;;2.95;;
10056;SDS011;5068;51.286;7.518;2023-04-15T06:30:23;5.05;;;2.70;;
10056;SDS011;5068;51.286;7.518;2023-04-15T06:31:57;5.13;;;2.85;;
10056;SDS011;5068;51.286;7.518;2023-04-15T06:33:32;5.50;;;2.72;;
10056;SDS011;5068;51.286;7.518;2023-04-15T06:35:06;4.38;;;3.05;;
10056;SDS011;5068;51.286;7.518;2023-04-15T06:36:42;4.70;;;2.90;;
10056;SDS011;5068;51.286;7.518;2023-04-15T06:38:16;6.00;;;3.30;;
10056;SDS011;5068;51.286;7.518;2023-04-15T06:39:50;4.65;;;3.13;;
10056;SDS011;5068;51.286;7.518;2023-04-15T06:41:25;5.63;;;3.28;;
10056;SDS011;5068;51.286;7.518;2023-04-15T06:43:00;7.15;;;3.80;;
10056;SDS011;5068;51.286;7.518;2023-04-15T06:44:36;4.82;;;3.08;;
10056;SDS011;5068;51.286;7.518;2023-04-15T06:46:10;4.22;;;2.80;;
10056;SDS011;5068;51.286;7.518;2023-04-15T06:47:45;4.45;;;3.28;;
10056;SDS011;5068;51.286;7.518;2023-04-15T06:49:19;4.38;;;2.95;;
10056;SDS011;5068;51.286;7.518;2023-04-15T06:50:54;5.53;;;3.35;;
10056;SDS011;5068;51.286;7.518;2023-04-15T06:52:30;6.10;;;3.20;;
10056;SDS011;5068;51.286;7.518;2023-04-15T06:54:04;5.35;;;3.58;;
10056;SDS011;5068;51.286;7.518;2023-04-15T06:55:39;5.88;;;3.35;;
10056;SDS011;5068;51.286;7.518;2023-04-15T06:57:13;6.10;;;3.10;;
10056;SDS011;5068;51.286;7.518;2023-04-15T06:58:49;8.02;;;3.42;;
10056;SDS011;5068;51.286;7.518;2023-04-15T07:00:24;5.63;;;3.72;;
10056;SDS011;5068;51.286;7.518;2023-04-15T07:02:00;4.95;;;3.30;;
10056;SDS011;5068;51.286;7.518;2023-04-15T07:03:34;6.60;;;3.45;;
10056;SDS011;5068;51.286;7.518;2023-04-15T07:05:09;4.55;;;3.10;;
10056;SDS011;5068;51.286;7.518;2023-04-15T07:08:18;5.38;;;3.28;;
10056;SDS011;5068;51.286;7.518;2023-04-15T07:09:53;4.32;;;2.90;;
10056;SDS011;5068;51.286;7.518;2023-04-15T07:11:27;4.28;;;2.95;;
10056;SDS011;5068;51.286;7.518;2023-04-15T07:13:02;5.97;;;3.40;;
10056;SDS011;5068;51.286;7.518;2023-04-15T07:14:40;4.53;;;3.10;;
10056;SDS011;5068;51.286;7.518;2023-04-15T07:16:14;4.63;;;3.08;;
10056;SDS011;5068;51.286;7.518;2023-04-15T07:19:24;4.68;;;2.85;;
10056;SDS011;5068;51.286;7.518;2023-04-15T07:20:59;6.18;;;3.30;;
10056;SDS011;5068;51.286;7.518;2023-04-15T07:22:34;5.93;;;3.20;;
10056;SDS011;5068;51.286;7.518;2023-04-15T07:24:08;4.18;;;3.05;;
10056;SDS011;5068;51.286;7.518;2023-04-15T07:25:43;5.88;;;3.22;;
10056;SDS011;5068;51.286;7.518;2023-04-15T07:27:17;4.63;;;3.47;;
10056;SDS011;5068;51.286;7.518;2023-04-15T07:28:51;6.00;;;3.28;;
10056;SDS011;5068;51.286;7.518;2023-04-15T07:30:27;5.32;;;3.03;;
10056;SDS011;5068;51.286;7.518;2023-04-15T07:32:02;5.03;;;3.28;;
10056;SDS011;5068;51.286;7.518;2023-04-15T07:33:37;7.13;;;4.28;;
10056;SDS011;5068;51.286;7.518;2023-04-15T07:35:12;9.68;;;5.10;;
10056;SDS011;5068;51.286;7.518;2023-04-15T07:37:04;6.22;;;4.72;;
10056;SDS011;5068;51.286;7.518;2023-04-15T07:38:38;9.30;;;5.17;;
10056;SDS011;5068;51.286;7.518;2023-04-15T07:40:13;9.10;;;5.53;;
10056;SDS011;5068;51.286;7.518;2023-04-15T07:41:47;7.60;;;4.63;;
10056;SDS011;5068;51.286;7.518;2023-04-15T07:43:22;7.38;;;4.47;;
10056;SDS011;5068;51.286;7.518;2023-04-15T07:44:56;9.48;;;5.07;;
10056;SDS011;5068;51.286;7.518;2023-04-15T07:46:32;5.93;;;4.20;;
10056;SDS011;5068;51.286;7.518;2023-04-15T07:48:08;8.13;;;4.82;;
10056;SDS011;5068;51.286;7.518;2023-04-15T07:49:43;7.40;;;4.22;;
10056;SDS011;5068;51.286;7.518;2023-04-15T07:51:17;5.78;;;3.92;;
10056;SDS011;5068;51.286;7.518;2023-04-15T07:52:53;6.32;;;4.13;;
10056;SDS011;5068;51.286;7.518;2023-04-15T07:54:27;6.30;;;4.20;;
10056;SDS011;5068;51.286;7.518;2023-04-15T07:56:01;5.88;;;3.70;;
10056;SDS011;5068;51.286;7.518;2023-04-15T07:57:37;9.10;;;4.10;;
10056;SDS011;5068;51.286;7.518;2023-04-15T07:59:11;9.40;;;4.90;;
10056;SDS011;5068;51.286;7.518;2023-04-15T08:00:46;8.00;;;4.68;;
10056;SDS011;5068;51.286;7.518;2023-04-15T08:02:22;7.07;;;4.15;;
10056;SDS011;5068;51.286;7.518;2023-04-15T08:03:57;6.25;;;4.25;;
10056;SDS011;5068;51.286;7.518;2023-04-15T08:07:06;6.25;;;3.80;;
10056;SDS011;5068;51.286;7.518;2023-04-15T08:08:41;5.43;;;3.83;;
10056;SDS011;5068;51.286;7.518;2023-04-15T08:10:15;8.48;;;4.90;;
10056;SDS011;5068;51.286;7.518;2023-04-15T08:11:50;7.45;;;4.57;;
10056;SDS011;5068;51.286;7.518;2023-04-15T08:13:25;8.05;;;4.38;;
10056;SDS011;5068;51.286;7.518;2023-04-15T08:15:00;8.07;;;4.55;;
10056;SDS011;5068;51.286;7.518;2023-04-15T08:16:34;6.82;;;4.95;;
10056;SDS011;5068;51.286;7.518;2023-04-15T08:18:11;5.72;;;4.07;;
10056;SDS011;5068;51.286;7.518;2023-04-15T08:19:45;8.18;;;4.88;;
10056;SDS011;5068;51.286;7.518;2023-04-15T08:21:20;6.82;;;4.43;;
10056;SDS011;5068;51.286;7.518;2023-04-15T08:22:55;6.60;;;4.40;;
10056;SDS011;5068;51.286;7.518;2023-04-15T08:24:30;6.30;;;4.38;;
10056;SDS011;5068;51.286;7.518;2023-04-15T08:27:40;5.50;;;3.72;;
10056;SDS011;5068;51.286;7.518;2023-04-15T08:29:14;5.53;;;3.83;;
10056;SDS011;5068;51.286;7.518;2023-04-15T08:30:49;7.07;;;4.32;;
10056;SDS011;5068;51.286;7.518;2023-04-15T08:32:25;6.63;;;4.28;;
10056;SDS011;5068;51.286;7.518;2023-04-15T08:34:01;6.18;;;4.10;;
10056;SDS011;5068;51.286;7.518;2023-04-15T08:35:35;5.88;;;4.13;;
10056;SDS011;5068;51.286;7.518;2023-04-15T08:37:10;6.13;;;3.83;;
10056;SDS011;5068;51.286;7.518;2023-04-15T08:38:44;6.97;;;5.00;;
10056;SDS011;5068;51.286;7.518;2023-04-15T08:40:19;7.93;;;4.95;;
10056;SDS011;5068;51.286;7.518;2023-04-15T08:41:59;6.97;;;4.20;;
10056;SDS011;5068;51.286;7.518;2023-04-15T08:43:36;6.18;;;4.40;;
10056;SDS011;5068;51.286;7.518;2023-04-15T08:45:19;6.80;;;4.75;;
10056;SDS011;5068;51.286;7.518;2023-04-15T08:46:56;5.43;;;3.85;;
10056;SDS011;5068;51.286;7.518;2023-04-15T08:48:34;6.57;;;4.97;;
10056;SDS011;5068;51.286;7.518;2023-04-15T08:50:13;7.00;;;4.90;;
10056;SDS011;5068;51.286;7.518;2023-04-15T08:51:49;7.03;;;4.28;;
10056;SDS011;5068;51.286;7.518;2023-04-15T08:53:24;6.60;;;4.28;;
10056;SDS011;5068;51.286;7.518;2023-04-15T08:54:59;5.82;;;4.45;;
10056;SDS011;5068;51.286;7.518;2023-04-15T08:56:37;6.65;;;5.28;;
10056;SDS011;5068;51.286;7.518;2023-04-15T08:58:12;6.82;;;4.85;;
10056;SDS011;5068;51.286;7.518;2023-04-15T08:59:49;6.72;;;4.75;;
10056;SDS011;5068;51.286;7.518;2023-04-15T09:02:58;7.70;;;4.65;;
10056;SDS011;5068;51.286;7.518;2023-04-15T09:04:33;5.32;;;4.10;;
10056;SDS011;5068;51.286;7.518;2023-04-15T09:06:09;7.13;;;4.32;;
10056;SDS011;5068;51.286;7.518;2023-04-15T09:07:44;6.25;;;4.80;;
10056;SDS011;5068;51.286;7.518;2023-04-15T09:09:21;6.25;;;4.90;;
10056;SDS011;5068;51.286;7.518;2023-04-15T09:10:55;6.38;;;4.72;;
10056;SDS011;5068;51.286;7.518;2023-04-15T09:12:30;6.45;;;4.90;;
10056;SDS011;5068;51.286;7.518;2023-04-15T09:14:07;7.55;;;5.43;;
10056;SDS011;5068;51.286;7.518;2023-04-15T09:15:42;7.53;;;4.93;;
10056;SDS011;5068;51.286;7.518;2023-04-15T09:17:17;6.82;;;5.60;;
10056;SDS011;5068;51.286;7.518;2023-04-15T09:18:53;7.13;;;4.25;;
10056;SDS011;5068;51.286;7.518;2023-04-15T09:20:28;5.50;;;4.43;;
10056;SDS011;5068;51.286;7.518;2023-04-15T09:23:39;5.97;;;5.05;;
10056;SDS011;5068;51.286;7.518;2023-04-15T09:25:27;5.93;;;4.45;;
10056;SDS011;5068;51.286;7.518;2023-04-15T09:27:05;7.20;;;4.35;;
10056;SDS011;5068;51.286;7.518;2023-04-15T09:28:40;6.57;;;5.05;;
10056;SDS011;5068;51.286;7.518;2023-04-15T09:30:15;8.70;;;5.30;;
10056;SDS011;5068;51.286;7.518;2023-04-15T09:33:24;5.95;;;4.15;;
10056;SDS011;5068;51.286;7.518;2023-04-15T09:35:09;6.15;;;5.03;;
10056;SDS011;5068;51.286;7.518;2023-04-15T09:36:52;6.13;;;4.65;;
10056;SDS011;5068;51.286;7.518;2023-04-15T09:38:31;5.78;;;4.38;;
10056;SDS011;5068;51.286;7.518;2023-04-15T09:40:06;5.53;;;4.82;;
10056;SDS011;5068;51.286;7.518;2023-04-15T09:41:41;7.10;;;4.82;;
10056;SDS011;5068;51.286;7.518;2023-04-15T09:43:16;7.97;;;5.65;;
10056;SDS011;5068;51.286;7.518;2023-04-15T09:44:51;8.43;;;5.90;;
10056;SDS011;5068;51.286;7.518;2023-04-15T09:48:16;8.98;;;6.97;;
10056;SDS011;5068;51.286;7.518;2023-04-15T09:49:56;6.88;;;4.68;;
10056;SDS011;5068;51.286;7.518;2023-04-15T09:51:33;8.82;;;7.20;;
10056;SDS011;5068;51.286;7.518;2023-04-15T09:53:08;9.27;;;6.72;;
10056;SDS011;5068;51.286;7.518;2023-04-15T09:54:45;7.93;;;5.88;;
10056;SDS011;5068;51.286;7.518;2023-04-15T09:56:19;6.82;;;5.32;;
10056;SDS011;5068;51.286;7.518;2023-04-15T09:57:56;5.95;;;4.90;;
10056;SDS011;5068;51.286;7.518;2023-04-15T09:59:31;8.45;;;6.50;;
10056;SDS011;5068;51.286;7.518;2023-04-15T10:01:05;6.25;;;4.68;;
10056;SDS011;5068;51.286;7.518;2023-04-15T10:02:40;5.88;;;4.95;;
10056;SDS011;5068;51.286;7.518;2023-04-15T10:04:15;7.13;;;5.50;;
10056;SDS011;5068;51.286;7.518;2023-04-15T10:05:51;5.63;;;4.18;;